createdAt,value
2023-03-02T00:01:54.225Z,13.00
2023-03-02T00:04:33.263Z,13.18
2023-03-02T00:07:04.169Z,18.52
2023-03-02T00:09:33.422Z,22.17
2023-03-02T00:12:01.497Z,15.20
2023-03-02T00:14:29.136Z,12.40
2023-03-02T00:16:57.012Z,15.13
2023-03-02T00:19:24.978Z,12.98
2023-03-02T00:21:52.627Z,11.32
2023-03-02T00:24:20.571Z,10.07
2023-03-02T00:26:48.355Z,11.55
2023-03-02T00:29:15.999Z,11.27
2023-03-02T00:31:44.122Z,12.15
2023-03-02T00:34:11.829Z,14.32
2023-03-02T00:36:40.046Z,13.43
2023-03-02T00:39:08.596Z,11.30
2023-03-02T00:41:37.783Z,11.10
2023-03-02T00:44:05.701Z,11.05
2023-03-02T00:46:33.917Z,13.48
2023-03-02T00:49:02.021Z,12.55
2023-03-02T00:51:29.854Z,12.45
2023-03-02T00:53:57.781Z,10.13
2023-03-02T00:56:25.291Z,11.23
2023-03-02T00:58:53.041Z,14.25
2023-03-02T01:01:21.116Z,10.90
2023-03-02T01:03:49.076Z,12.85
2023-03-02T01:06:19.279Z,11.15
2023-03-02T01:08:47.623Z,13.05
2023-03-02T01:11:17.561Z,10.35
2023-03-02T01:13:46.072Z,13.20
2023-03-02T01:16:14.593Z,13.18
2023-03-02T01:18:43.008Z,13.88
2023-03-02T01:21:15.645Z,12.48
2023-03-02T01:23:43.727Z,11.35
2023-03-02T01:26:11.389Z,9.77
2023-03-02T01:28:39.123Z,11.40
2023-03-02T01:31:07.279Z,10.82
2023-03-02T01:33:34.909Z,13.43
2023-03-02T01:36:02.750Z,12.85
2023-03-02T01:38:30.779Z,12.40
2023-03-02T01:40:58.795Z,10.77
2023-03-02T01:43:26.576Z,10.55
2023-03-02T01:45:59.095Z,9.80
2023-03-02T01:48:48.039Z,11.73
2023-03-02T01:51:23.229Z,10.68
2023-03-02T01:53:55.618Z,10.23
2023-03-02T01:56:31.499Z,11.65
2023-03-02T01:59:03.670Z,9.23
2023-03-02T02:01:34.573Z,11.15
2023-03-02T02:04:02.926Z,12.20
2023-03-02T02:07:03.409Z,11.80
2023-03-02T02:09:35.419Z,10.43
2023-03-02T02:12:03.687Z,16.77
2023-03-02T02:14:31.816Z,8.90
2023-03-02T02:16:59.668Z,13.38
2023-03-02T02:19:42.460Z,14.20
2023-03-02T02:22:12.055Z,13.35
2023-03-02T02:24:52.489Z,10.80
2023-03-02T02:27:20.496Z,12.15
2023-03-02T02:29:52.629Z,12.85
2023-03-02T02:32:30.817Z,9.80
2023-03-02T02:35:05.177Z,12.02
2023-03-02T02:37:38.640Z,7.12
2023-03-02T02:40:12.567Z,10.95
2023-03-02T02:42:48.618Z,9.20
2023-03-02T02:47:50.159Z,11.50
2023-03-02T02:50:32.265Z,10.20
2023-03-02T02:53:20.405Z,9.55
2023-03-02T02:55:52.043Z,13.50
2023-03-02T02:58:56.701Z,8.32
2023-03-02T03:01:26.298Z,10.93
2023-03-02T03:04:02.286Z,11.32
2023-03-02T03:06:42.403Z,10.80
2023-03-02T03:09:12.479Z,16.60
2023-03-02T03:11:43.714Z,15.75
2023-03-02T03:14:15.455Z,9.30
2023-03-02T03:16:46.520Z,14.85
2023-03-02T03:19:18.387Z,15.90
2023-03-02T03:21:49.739Z,9.50
2023-03-02T03:24:18.643Z,13.05
2023-03-02T03:26:46.798Z,11.50
2023-03-02T03:29:15.792Z,5.18
2023-03-02T03:31:44.490Z,11.18
2023-03-02T03:34:12.406Z,11.48
2023-03-02T03:36:40.152Z,12.57
2023-03-02T03:39:08.204Z,8.93
2023-03-02T03:41:36.317Z,12.30
2023-03-02T03:44:04.419Z,11.82
2023-03-02T03:46:34.424Z,15.52
2023-03-02T03:49:03.500Z,8.90
2023-03-02T03:51:35.393Z,9.93
2023-03-02T03:54:05.575Z,13.80
2023-03-02T03:56:36.932Z,7.57
2023-03-02T03:59:07.509Z,10.93
2023-03-02T04:01:41.877Z,9.05
2023-03-02T04:04:17.247Z,14.45
2023-03-02T04:06:45.072Z,11.82
2023-03-02T04:09:15.440Z,12.75
2023-03-02T04:11:45.135Z,12.82
2023-03-02T04:14:14.273Z,13.20
2023-03-02T04:16:42.091Z,12.80
2023-03-02T04:19:10.493Z,11.57
2023-03-02T04:21:41.615Z,11.90
2023-03-02T04:24:10.111Z,13.00
2023-03-02T04:26:40.570Z,10.82
2023-03-02T04:29:09.418Z,11.35
2023-03-02T04:31:38.063Z,13.25
2023-03-02T04:34:07.940Z,13.20
2023-03-02T04:36:39.022Z,11.12
2023-03-02T04:41:35.974Z,10.45
2023-03-02T04:44:03.683Z,10.65
2023-03-02T04:46:32.090Z,10.90
2023-03-02T04:49:00.083Z,13.80
2023-03-02T04:51:38.418Z,15.25
2023-03-02T04:54:11.627Z,14.87
2023-03-02T04:56:39.239Z,13.98
2023-03-02T04:59:07.369Z,22.40
2023-03-02T05:01:35.069Z,13.25
2023-03-02T05:04:03.203Z,11.77
2023-03-02T05:06:31.414Z,13.60
2023-03-02T05:09:00.231Z,19.95
2023-03-02T05:11:28.426Z,13.82
2023-03-02T05:13:59.489Z,18.17
2023-03-02T05:16:29.450Z,21.17
2023-03-02T05:18:58.943Z,17.48
2023-03-02T05:21:27.247Z,14.02
2023-03-02T05:23:55.014Z,15.18
2023-03-02T05:26:23.509Z,15.15
2023-03-02T05:28:53.891Z,12.88
2023-03-02T05:31:28.643Z,16.37
2023-03-02T05:33:56.602Z,14.60
2023-03-02T05:36:24.215Z,16.75
2023-03-02T05:38:51.937Z,15.80
2023-03-02T05:41:20.003Z,21.80
2023-03-02T05:43:47.802Z,16.87
2023-03-02T05:46:17.376Z,14.87
2023-03-02T05:48:46.599Z,13.18
2023-03-02T05:51:14.196Z,13.23
2023-03-02T05:53:41.890Z,18.05
2023-03-02T05:56:10.094Z,16.12
2023-03-02T05:58:37.935Z,15.13
2023-03-02T06:01:13.558Z,14.55
2023-03-02T06:03:43.747Z,16.48
2023-03-02T06:06:15.206Z,16.58
2023-03-02T06:08:44.487Z,10.73
2023-03-02T06:11:12.797Z,13.00
2023-03-02T06:13:40.603Z,12.50
2023-03-02T06:16:09.108Z,15.57
2023-03-02T06:18:39.745Z,17.45
2023-03-02T06:21:09.360Z,13.40
2023-03-02T06:23:37.018Z,16.85
2023-03-02T06:26:10.024Z,16.70
2023-03-02T06:28:51.347Z,17.15
2023-03-02T06:31:21.387Z,18.50
2023-03-02T06:33:49.859Z,11.63
2023-03-02T06:36:17.956Z,13.40
2023-03-02T06:38:45.891Z,14.73
2023-03-02T06:41:13.796Z,16.70
2023-03-02T06:43:41.604Z,27.20
2023-03-02T06:46:09.351Z,15.48
2023-03-02T06:48:40.133Z,12.57
2023-03-02T06:51:08.375Z,11.23
2023-03-02T06:53:36.116Z,14.87
2023-03-02T06:56:04.430Z,16.90
2023-03-02T06:58:32.196Z,15.13
2023-03-02T07:01:00.047Z,18.30
2023-03-02T07:03:28.063Z,26.87
2023-03-02T07:05:55.891Z,17.80
2023-03-02T07:08:24.044Z,17.62
2023-03-02T07:10:52.006Z,15.85
2023-03-02T07:13:20.088Z,20.77
2023-03-02T07:15:48.046Z,14.25
2023-03-02T07:18:16.126Z,15.65
2023-03-02T07:20:44.464Z,17.02
2023-03-02T07:23:12.360Z,16.65
2023-03-02T07:25:40.230Z,15.23
2023-03-02T07:28:07.896Z,21.08
2023-03-02T07:30:35.691Z,18.62
2023-03-02T07:33:03.651Z,19.08
2023-03-02T07:35:31.253Z,12.30
2023-03-02T07:37:58.871Z,15.55
2023-03-02T07:40:27.088Z,15.65
2023-03-02T07:42:54.670Z,18.33
2023-03-02T07:45:24.941Z,15.45
2023-03-02T07:47:53.047Z,15.60
2023-03-02T07:50:21.159Z,20.58
2023-03-02T07:52:48.838Z,22.55
2023-03-02T07:55:16.909Z,15.45
2023-03-02T07:57:44.668Z,19.52
2023-03-02T08:00:13.045Z,17.40
2023-03-02T08:02:42.630Z,21.70
2023-03-02T08:05:12.242Z,23.17
2023-03-02T08:07:44.053Z,16.45
2023-03-02T08:10:12.450Z,16.65
2023-03-02T08:12:45.562Z,16.83
2023-03-02T08:15:13.465Z,16.33
2023-03-02T08:17:41.098Z,17.67
2023-03-02T08:20:12.124Z,18.27
2023-03-02T08:22:41.960Z,19.62
2023-03-02T08:25:09.788Z,16.02
2023-03-02T08:27:40.260Z,13.70
2023-03-02T08:30:10.959Z,14.30
2023-03-02T08:32:45.734Z,16.37
2023-03-02T08:35:13.709Z,17.85
2023-03-02T08:37:41.269Z,15.95
2023-03-02T08:40:12.747Z,17.58
2023-03-02T08:42:42.988Z,16.37
2023-03-02T08:45:10.780Z,19.27
2023-03-02T08:47:38.436Z,16.90
2023-03-02T08:50:09.613Z,19.23
2023-03-02T08:52:37.560Z,21.95
2023-03-02T08:55:05.918Z,16.55
2023-03-02T08:57:34.858Z,15.55
2023-03-02T09:00:08.660Z,15.68
2023-03-02T09:02:36.551Z,19.87
2023-03-02T09:05:04.425Z,18.12
2023-03-02T09:07:32.116Z,19.73
2023-03-02T09:10:01.208Z,16.48
2023-03-02T09:12:31.839Z,20.40
2023-03-02T09:14:59.628Z,19.60
2023-03-02T09:17:27.496Z,21.27
2023-03-02T09:19:55.081Z,16.52
2023-03-02T09:22:22.841Z,15.90
2023-03-02T09:24:50.861Z,17.90
2023-03-02T09:27:18.548Z,18.05
2023-03-02T09:29:46.216Z,25.75
2023-03-02T09:32:16.144Z,19.20
2023-03-02T09:34:43.913Z,19.80
2023-03-02T09:37:11.484Z,19.12
2023-03-02T09:39:39.882Z,17.42
2023-03-02T09:42:16.295Z,21.58
2023-03-02T09:45:14.573Z,14.52
2023-03-02T09:48:10.917Z,16.70
2023-03-02T09:50:45.847Z,14.63
2023-03-02T09:53:38.394Z,16.58
2023-03-02T09:56:14.862Z,19.17
2023-03-02T09:58:49.548Z,16.55
2023-03-02T10:01:30.132Z,16.25
2023-03-02T10:04:08.316Z,20.33
2023-03-02T10:06:36.056Z,17.20
2023-03-02T10:09:03.966Z,14.20
2023-03-02T10:12:32.954Z,17.65
2023-03-02T10:15:19.230Z,13.35
2023-03-02T10:17:53.063Z,14.60
2023-03-02T10:20:34.148Z,19.35
2023-03-02T10:23:28.650Z,16.15
2023-03-02T10:26:11.418Z,13.82
2023-03-02T10:29:10.888Z,14.15
2023-03-02T10:31:41.311Z,14.48
2023-03-02T10:34:11.666Z,14.02
2023-03-02T10:36:43.203Z,14.55
2023-03-02T10:39:15.365Z,15.45
2023-03-02T10:42:06.891Z,11.45
2023-03-02T10:44:39.701Z,12.00
2023-03-02T10:47:08.663Z,15.80
2023-03-02T10:49:42.030Z,15.80
2023-03-02T10:52:15.286Z,13.80
2023-03-02T10:54:43.005Z,21.12
2023-03-02T10:57:23.064Z,18.35
2023-03-02T11:02:27.618Z,16.52
2023-03-02T11:04:57.349Z,9.52
2023-03-02T11:07:28.617Z,15.37
2023-03-02T11:10:02.014Z,13.52
2023-03-02T11:12:32.004Z,13.85
2023-03-02T11:15:19.658Z,10.10
2023-03-02T11:18:29.101Z,14.52
2023-03-02T11:21:04.603Z,13.90
2023-03-02T11:24:06.108Z,12.73
2023-03-02T11:26:45.119Z,18.62
2023-03-02T11:29:39.048Z,12.90
2023-03-02T11:32:25.636Z,9.13
2023-03-02T11:35:08.972Z,15.57
2023-03-02T11:37:42.729Z,12.45
2023-03-02T11:40:23.884Z,13.02
2023-03-02T11:42:52.891Z,9.65
2023-03-02T11:45:24.276Z,10.35
2023-03-02T11:48:03.303Z,11.82
2023-03-02T11:50:37.642Z,10.07
2023-03-02T11:53:12.109Z,11.27
2023-03-02T11:55:50.733Z,10.40
2023-03-02T11:58:21.538Z,10.52
2023-03-02T12:00:51.150Z,10.95
2023-03-02T12:03:22.477Z,10.48
2023-03-02T12:05:52.845Z,8.55
2023-03-02T12:08:20.727Z,9.80
2023-03-02T12:11:25.740Z,7.50
2023-03-02T12:14:04.752Z,11.45
2023-03-02T12:16:36.157Z,9.68
2023-03-02T12:19:16.507Z,8.50
2023-03-02T12:21:57.224Z,11.60
2023-03-02T12:24:28.450Z,9.18
2023-03-02T12:27:03.745Z,9.55
2023-03-02T12:29:44.276Z,11.63
2023-03-02T12:32:26.265Z,8.95
2023-03-02T12:35:02.876Z,9.15
2023-03-02T12:37:49.587Z,11.00
2023-03-02T12:40:35.756Z,13.35
2023-03-02T12:43:24.657Z,13.20
2023-03-02T12:46:14.390Z,7.75
2023-03-02T12:48:45.808Z,6.78
2023-03-02T12:51:23.754Z,9.07
2023-03-02T12:54:22.476Z,10.05
2023-03-02T12:56:50.960Z,12.75
2023-03-02T12:59:28.896Z,11.98
2023-03-02T13:02:16.415Z,8.65
2023-03-02T13:04:44.876Z,7.25
2023-03-02T13:07:19.557Z,8.75
2023-03-02T13:09:57.234Z,8.95
2023-03-02T13:12:29.501Z,10.52
2023-03-02T13:14:59.240Z,9.73
2023-03-02T13:17:32.637Z,13.38
2023-03-02T13:20:03.612Z,13.98
2023-03-02T13:22:32.188Z,12.43
2023-03-02T13:25:08.206Z,10.18
2023-03-02T13:27:36.167Z,12.63
2023-03-02T13:30:28.596Z,11.90
2023-03-02T13:33:01.701Z,9.77
2023-03-02T13:35:32.959Z,12.02
2023-03-02T13:40:37.793Z,18.15
2023-03-02T13:43:23.908Z,10.88
2023-03-02T13:46:07.807Z,7.75
2023-03-02T13:48:35.784Z,14.82
2023-03-02T13:51:14.216Z,12.55
2023-03-02T13:53:53.384Z,12.25
2023-03-02T13:56:29.524Z,10.65
2023-03-02T13:58:57.800Z,11.18
2023-03-02T14:01:26.429Z,13.57
2023-03-02T14:03:57.310Z,22.70
2023-03-02T14:06:28.860Z,12.15
2023-03-02T14:08:56.849Z,12.98
2023-03-02T14:11:24.824Z,17.50
2023-03-02T14:13:54.606Z,10.32
2023-03-02T14:16:24.227Z,12.35
2023-03-02T14:18:56.294Z,9.07
2023-03-02T14:21:25.782Z,15.15
2023-03-02T14:23:54.312Z,12.63
2023-03-02T14:26:31.300Z,14.38
2023-03-02T14:29:26.098Z,11.30
2023-03-02T14:31:55.666Z,12.60
2023-03-02T14:34:23.841Z,12.88
2023-03-02T14:36:56.219Z,12.88
2023-03-02T14:39:37.635Z,11.88
2023-03-02T14:42:10.832Z,9.77
2023-03-02T14:44:38.682Z,13.10
2023-03-02T14:47:07.232Z,13.95
2023-03-02T14:49:35.060Z,15.95
2023-03-02T14:52:12.108Z,10.88
2023-03-02T14:55:01.974Z,13.85
2023-03-02T14:57:35.410Z,13.10
2023-03-02T15:00:05.132Z,15.90
2023-03-02T15:02:36.110Z,19.37
2023-03-02T15:05:03.964Z,13.62
2023-03-02T15:07:31.730Z,10.70
2023-03-02T15:10:02.262Z,9.52
2023-03-02T15:12:30.143Z,14.23
2023-03-02T15:14:57.686Z,18.12
2023-03-02T15:17:25.611Z,15.35
2023-03-02T15:19:53.747Z,12.07
2023-03-02T15:22:21.385Z,28.58
2023-03-02T15:24:49.345Z,11.73
2023-03-02T15:27:17.405Z,9.40
2023-03-02T15:29:47.215Z,14.10
2023-03-02T15:32:15.941Z,15.70
2023-03-02T15:34:43.920Z,18.35
2023-03-02T15:37:12.743Z,8.85
2023-03-02T15:39:44.525Z,9.82
2023-03-02T15:42:13.896Z,13.65
2023-03-02T15:44:42.282Z,11.50
2023-03-02T15:47:11.119Z,14.10
2023-03-02T15:49:38.882Z,13.55
2023-03-02T15:52:06.728Z,12.88
2023-03-02T15:54:34.281Z,22.85
2023-03-02T15:57:01.913Z,9.90
2023-03-02T15:59:31.249Z,13.88
2023-03-02T16:02:02.139Z,18.52
2023-03-02T16:04:32.005Z,16.77
2023-03-02T16:07:00.120Z,11.38
2023-03-02T16:09:29.051Z,15.05
2023-03-02T16:11:57.529Z,15.45
2023-03-02T16:14:25.230Z,16.62
2023-03-02T16:16:53.195Z,90.95
2023-03-02T16:19:21.516Z,32.03
2023-03-02T16:21:49.402Z,33.30
2023-03-02T16:24:17.409Z,22.15
2023-03-02T16:26:45.765Z,14.85
2023-03-02T16:29:14.006Z,42.78
2023-03-02T16:31:45.218Z,20.70
2023-03-02T16:34:14.107Z,29.12
2023-03-02T16:36:42.482Z,43.42
2023-03-02T16:39:12.080Z,29.15
2023-03-02T16:41:42.423Z,54.83
2023-03-02T16:44:11.722Z,28.60
2023-03-02T16:46:40.280Z,42.25
2023-03-02T16:49:08.954Z,41.95
2023-03-02T16:51:37.373Z,49.10
2023-03-02T16:54:05.441Z,42.03
2023-03-02T16:56:33.570Z,30.67
2023-03-02T16:59:01.507Z,27.62
2023-03-02T17:01:29.548Z,29.50
2023-03-02T17:03:57.804Z,25.50
2023-03-02T17:06:25.746Z,39.25
2023-03-02T17:08:54.090Z,42.10
2023-03-02T17:11:23.116Z,39.67
2023-03-02T17:13:52.585Z,28.43
2023-03-02T17:16:20.817Z,46.65
2023-03-02T17:18:48.859Z,75.35
2023-03-02T17:21:17.237Z,59.58
2023-03-02T17:23:48.077Z,57.83
2023-03-02T17:28:45.077Z,45.92
2023-03-02T17:31:13.512Z,42.95
2023-03-02T17:33:41.645Z,41.37
2023-03-02T17:36:12.148Z,38.28
2023-03-02T17:38:40.792Z,48.10
2023-03-02T17:41:10.823Z,41.28
2023-03-02T17:43:41.477Z,51.97
2023-03-02T17:46:14.795Z,53.03
2023-03-02T17:48:43.526Z,55.60
2023-03-02T17:51:14.792Z,51.20
2023-03-02T17:53:48.185Z,66.55
2023-03-02T17:56:19.186Z,67.93
2023-03-02T17:58:47.317Z,57.58
2023-03-02T18:01:15.942Z,52.53
2023-03-02T18:03:45.240Z,64.78
2023-03-02T18:06:14.134Z,48.63
2023-03-02T18:08:41.677Z,51.53
2023-03-02T18:11:10.089Z,52.00
2023-03-02T18:13:38.081Z,47.75
2023-03-02T18:16:06.562Z,48.10
2023-03-02T18:18:34.836Z,50.85
2023-03-02T18:21:02.992Z,45.75
2023-03-02T18:23:31.478Z,54.70
2023-03-02T18:25:59.496Z,48.63
2023-03-02T18:28:27.482Z,53.35
2023-03-02T18:30:55.450Z,57.80
2023-03-02T18:33:23.551Z,51.37
2023-03-02T18:35:52.265Z,51.58
2023-03-02T18:38:20.236Z,50.00
2023-03-02T18:40:48.407Z,44.75
2023-03-02T18:43:16.765Z,29.50
2023-03-02T18:45:44.356Z,36.42
2023-03-02T18:48:12.731Z,39.78
2023-03-02T18:50:40.468Z,37.78
2023-03-02T18:53:08.703Z,39.72
2023-03-02T18:55:37.264Z,47.28
2023-03-02T18:58:07.455Z,41.75
2023-03-02T19:00:36.294Z,53.47
2023-03-02T19:03:04.417Z,77.80
2023-03-02T19:05:32.441Z,87.45
2023-03-02T19:08:00.439Z,81.15
2023-03-02T19:10:29.130Z,75.93
2023-03-02T19:12:56.741Z,78.43
2023-03-02T19:15:25.007Z,73.25
2023-03-02T19:17:53.552Z,76.45
2023-03-02T19:20:22.217Z,73.47
2023-03-02T19:22:50.492Z,55.78
2023-03-02T19:25:18.718Z,58.75
2023-03-02T19:27:48.199Z,60.28
2023-03-02T19:30:24.847Z,57.50
2023-03-02T19:32:54.281Z,59.33
2023-03-02T19:35:25.214Z,55.12
2023-03-02T19:37:53.608Z,48.20
2023-03-02T19:40:24.788Z,52.35
2023-03-02T19:45:29.973Z,51.95
2023-03-02T19:47:59.972Z,58.40
2023-03-02T19:50:29.555Z,70.55
2023-03-02T19:52:59.096Z,160.63
2023-03-02T19:55:27.324Z,81.87
2023-03-02T19:57:59.631Z,52.42
2023-03-02T20:00:31.759Z,58.90
2023-03-02T20:03:00.557Z,47.78
2023-03-02T20:05:28.572Z,63.25
2023-03-02T20:07:56.700Z,56.85
2023-03-02T20:10:31.147Z,63.17
2023-03-02T20:13:00.714Z,63.92
2023-03-02T20:15:31.053Z,66.53
2023-03-02T20:18:02.485Z,76.78
2023-03-02T20:20:33.094Z,76.47
2023-03-02T20:23:01.100Z,83.18
2023-03-02T20:25:29.671Z,75.03
2023-03-02T20:27:58.867Z,79.75
2023-03-02T20:30:31.637Z,96.07
2023-03-02T20:33:00.890Z,150.35
2023-03-02T20:35:32.780Z,128.90
2023-03-02T20:38:05.467Z,172.18
2023-03-02T20:40:34.225Z,104.70
2023-03-02T20:43:02.454Z,76.80
2023-03-02T20:45:30.436Z,76.47
2023-03-02T20:47:59.125Z,121.78
2023-03-02T20:50:30.807Z,123.75
2023-03-02T20:52:59.486Z,77.43
2023-03-02T20:55:28.725Z,59.75
2023-03-02T20:57:57.279Z,61.37
2023-03-02T21:00:28.110Z,60.72
2023-03-02T21:02:57.260Z,67.20
2023-03-02T21:05:26.969Z,52.03
2023-03-02T21:07:55.507Z,71.00
2023-03-02T21:10:29.856Z,61.85
2023-03-02T21:12:57.811Z,65.97
2023-03-02T21:15:27.260Z,59.83
2023-03-02T21:17:55.900Z,54.35
2023-03-02T21:20:31.328Z,63.78
2023-03-02T21:22:59.840Z,108.93
2023-03-02T21:25:28.333Z,74.07
2023-03-02T21:27:57.238Z,70.07
2023-03-02T21:30:35.738Z,63.63
2023-03-02T21:33:03.612Z,67.25
2023-03-02T21:35:31.703Z,93.20
2023-03-02T21:38:03.770Z,57.28
2023-03-02T21:40:45.890Z,50.08
2023-03-02T21:43:16.235Z,56.40
2023-03-02T21:45:44.497Z,59.17
2023-03-02T21:48:13.926Z,53.85
2023-03-02T21:50:42.222Z,53.45
2023-03-02T21:53:10.250Z,57.67
2023-03-02T21:55:38.103Z,119.62
2023-03-02T21:58:06.211Z,82.45
2023-03-02T22:00:37.522Z,76.22
2023-03-02T22:03:06.800Z,63.65
2023-03-02T22:05:34.493Z,77.82
2023-03-02T22:08:02.194Z,73.28
2023-03-02T22:10:46.098Z,75.43
2023-03-02T22:13:14.031Z,61.35
2023-03-02T22:15:42.139Z,68.22
2023-03-02T22:18:15.395Z,70.97
2023-03-02T22:20:47.359Z,65.80
2023-03-02T22:25:44.441Z,66.80
2023-03-02T22:28:18.484Z,79.35
2023-03-02T22:30:48.016Z,84.78
2023-03-02T22:33:25.212Z,88.05
2023-03-02T22:35:59.854Z,80.50
2023-03-02T22:38:30.183Z,77.97
2023-03-02T22:40:58.257Z,74.60
2023-03-02T22:43:30.971Z,77.22
2023-03-02T22:46:15.890Z,82.85
2023-03-02T22:48:46.286Z,76.40
2023-03-02T22:51:24.262Z,73.82
2023-03-02T22:53:54.360Z,73.32
2023-03-02T22:56:52.731Z,78.80
2023-03-02T22:59:24.498Z,82.28
2023-03-02T23:02:08.151Z,81.60
2023-03-02T23:04:37.997Z,78.47
2023-03-02T23:07:19.400Z,49.17
2023-03-02T23:09:47.952Z,58.80
2023-03-02T23:12:22.030Z,48.38
2023-03-02T23:14:51.201Z,50.80
2023-03-02T23:17:34.218Z,47.33
2023-03-02T23:20:03.079Z,44.42
2023-03-02T23:22:31.629Z,45.63
2023-03-02T23:24:59.432Z,41.97
2023-03-02T23:27:27.844Z,45.90
2023-03-02T23:29:55.876Z,47.15
2023-03-02T23:32:23.642Z,41.30
2023-03-02T23:34:51.373Z,43.90
2023-03-02T23:37:19.354Z,45.47
2023-03-02T23:39:46.908Z,41.50
2023-03-02T23:42:14.735Z,37.08
2023-03-02T23:44:42.643Z,37.72
2023-03-02T23:47:10.179Z,39.72
2023-03-02T23:49:37.859Z,39.28
2023-03-02T23:52:06.093Z,34.92
2023-03-02T23:54:33.877Z,36.08
2023-03-02T23:57:01.513Z,28.98
2023-03-02T23:59:29.500Z,38.88
